sensor_id;sensor_type;location;lat;lon;timestamp;temperature;humidity
19037;DHT22;9651;49.138;8.900;2023-10-19T00:01:47;12.40;99.90
19037;DHT22;9651;49.138;8.900;2023-10-19T00:05:49;12.40;99.90
19037;DHT22;9651;49.138;8.900;2023-10-19T00:09:53;12.40;99.90
19037;DHT22;9651;49.138;8.900;2023-10-19T00:13:55;12.40;99.90
19037;DHT22;9651;49.138;8.900;2023-10-19T00:17:58;12.40;99.90
19037;DHT22;9651;49.138;8.900;2023-10-19T00:22:07;12.50;99.90
19037;DHT22;9651;49.138;8.900;2023-10-19T00:26:18;12.50;99.90
19037;DHT22;9651;49.138;8.900;2023-10-19T00:30:30;12.50;99.90
19037;DHT22;9651;49.138;8.900;2023-10-19T00:34:36;12.50;99.90
19037;DHT22;9651;49.138;8.900;2023-10-19T00:38:40;12.60;99.90
19037;DHT22;9651;49.138;8.900;2023-10-19T00:42:49;12.60;99.90
19037;DHT22;9651;49.138;8.900;2023-10-19T00:46:55;12.60;99.90
19037;DHT22;9651;49.138;8.900;2023-10-19T00:51:04;12.60;99.90
19037;DHT22;9651;49.138;8.900;2023-10-19T00:55:10;12.60;99.90
19037;DHT22;9651;49.138;8.900;2023-10-19T00:59:18;12.50;99.90
19037;DHT22;9651;49.138;8.900;2023-10-19T01:03:22;12.50;99.90
19037;DHT22;9651;49.138;8.900;2023-10-19T01:07:32;12.50;99.90
19037;DHT22;9651;49.138;8.900;2023-10-19T01:11:38;12.50;99.90
19037;DHT22;9651;49.138;8.900;2023-10-19T01:15:43;12.40;99.90
19037;DHT22;9651;49.138;8.900;2023-10-19T01:19:49;12.40;99.90
19037;DHT22;9651;49.138;8.900;2023-10-19T01:23:54;12.40;99.90
19037;DHT22;9651;49.138;8.900;2023-10-19T01:27:56;12.40;99.90
19037;DHT22;9651;49.138;8.900;2023-10-19T01:31:58;12.40;99.90
19037;DHT22;9651;49.138;8.900;2023-10-19T01:36:09;12.40;99.90
19037;DHT22;9651;49.138;8.900;2023-10-19T01:40:16;12.40;99.90
19037;DHT22;9651;49.138;8.900;2023-10-19T01:44:21;12.40;99.90
19037;DHT22;9651;49.138;8.900;2023-10-19T01:48:25;12.30;99.90
19037;DHT22;9651;49.138;8.900;2023-10-19T01:52:33;12.30;99.90
19037;DHT22;9651;49.138;8.900;2023-10-19T01:56:37;12.30;99.90
19037;DHT22;9651;49.138;8.900;2023-10-19T02:00:39;12.40;99.90
19037;DHT22;9651;49.138;8.900;2023-10-19T02:04:42;12.40;99.90
19037;DHT22;9651;49.138;8.900;2023-10-19T02:08:45;12.50;99.90
19037;DHT22;9651;49.138;8.900;2023-10-19T02:12:52;12.50;99.90
19037;DHT22;9651;49.138;8.900;2023-10-19T02:16:57;12.50;99.90
19037;DHT22;9651;49.138;8.900;2023-10-19T02:20:59;12.40;99.90
19037;DHT22;9651;49.138;8.900;2023-10-19T02:25:07;12.40;99.90
19037;DHT22;9651;49.138;8.900;2023-10-19T02:29:12;12.40;99.90
19037;DHT22;9651;49.138;8.900;2023-10-19T02:33:15;12.40;99.90
19037;DHT22;9651;49.138;8.900;2023-10-19T02:37:17;12.40;99.90
19037;DHT22;9651;49.138;8.900;2023-10-19T02:41:19;12.40;99.90
19037;DHT22;9651;49.138;8.900;2023-10-19T02:45:22;12.50;99.90
19037;DHT22;9651;49.138;8.900;2023-10-19T02:49:25;12.40;99.90
19037;DHT22;9651;49.138;8.900;2023-10-19T02:53:27;12.40;99.90
19037;DHT22;9651;49.138;8.900;2023-10-19T02:57:30;12.40;99.90
19037;DHT22;9651;49.138;8.900;2023-10-19T03:01:34;12.30;99.90
19037;DHT22;9651;49.138;8.900;2023-10-19T03:05:35;12.30;99.90
19037;DHT22;9651;49.138;8.900;2023-10-19T03:09:37;12.20;99.90
19037;DHT22;9651;49.138;8.900;2023-10-19T03:13:40;12.30;99.90
19037;DHT22;9651;49.138;8.900;2023-10-19T03:17:45;12.30;99.90
19037;DHT22;9651;49.138;8.900;2023-10-19T03:21:47;12.30;99.90
19037;DHT22;9651;49.138;8.900;2023-10-19T03:25:54;12.30;99.90
19037;DHT22;9651;49.138;8.900;2023-10-19T03:30:14;12.30;99.90
19037;DHT22;9651;49.138;8.900;2023-10-19T03:34:20;12.30;99.90
19037;DHT22;9651;49.138;8.900;2023-10-19T03:38:24;12.30;99.90
19037;DHT22;9651;49.138;8.900;2023-10-19T03:42:26;12.30;99.90
19037;DHT22;9651;49.138;8.900;2023-10-19T03:46:32;12.30;99.90
19037;DHT22;9651;49.138;8.900;2023-10-19T03:50:39;12.30;99.90
19037;DHT22;9651;49.138;8.900;2023-10-19T03:54:43;12.30;99.90
19037;DHT22;9651;49.138;8.900;2023-10-19T03:58:45;12.30;99.90
19037;DHT22;9651;49.138;8.900;2023-10-19T04:02:51;12.30;99.90
19037;DHT22;9651;49.138;8.900;2023-10-19T04:06:57;12.30;99.90
19037;DHT22;9651;49.138;8.900;2023-10-19T04:10:59;12.30;99.90
19037;DHT22;9651;49.138;8.900;2023-10-19T04:15:12;12.30;99.90
19037;DHT22;9651;49.138;8.900;2023-10-19T04:19:16;12.30;99.90
19037;DHT22;9651;49.138;8.900;2023-10-19T04:23:19;12.30;99.90
19037;DHT22;9651;49.138;8.900;2023-10-19T04:27:21;12.30;99.90
19037;DHT22;9651;49.138;8.900;2023-10-19T04:31:23;12.30;99.90
19037;DHT22;9651;49.138;8.900;2023-10-19T04:35:25;12.30;99.90
19037;DHT22;9651;49.138;8.900;2023-10-19T04:39:32;12.30;99.90
19037;DHT22;9651;49.138;8.900;2023-10-19T04:43:35;12.30;99.90
19037;DHT22;9651;49.138;8.900;2023-10-19T04:47:38;12.30;99.90
19037;DHT22;9651;49.138;8.900;2023-10-19T04:51:40;12.30;99.90
19037;DHT22;9651;49.138;8.900;2023-10-19T04:55:46;12.20;99.90
19037;DHT22;9651;49.138;8.900;2023-10-19T04:59:48;12.20;99.90
19037;DHT22;9651;49.138;8.900;2023-10-19T05:03:50;12.20;99.90
19037;DHT22;9651;49.138;8.900;2023-10-19T05:07:52;12.10;99.90
19037;DHT22;9651;49.138;8.900;2023-10-19T05:11:55;12.00;99.90
19037;DHT22;9651;49.138;8.900;2023-10-19T05:15:58;12.00;99.90
19037;DHT22;9651;49.138;8.900;2023-10-19T05:20:00;11.90;99.90
19037;DHT22;9651;49.138;8.900;2023-10-19T05:24:02;11.90;99.90
19037;DHT22;9651;49.138;8.900;2023-10-19T05:28:07;11.80;99.90
19037;DHT22;9651;49.138;8.900;2023-10-19T05:32:10;11.70;99.90
19037;DHT22;9651;49.138;8.900;2023-10-19T05:36:12;11.60;99.90
19037;DHT22;9651;49.138;8.900;2023-10-19T05:40:15;11.50;99.90
19037;DHT22;9651;49.138;8.900;2023-10-19T05:44:20;11.40;99.90
19037;DHT22;9651;49.138;8.900;2023-10-19T05:48:21;11.30;99.90
19037;DHT22;9651;49.138;8.900;2023-10-19T05:52:23;11.20;99.90
19037;DHT22;9651;49.138;8.900;2023-10-19T05:56:25;11.20;99.90
19037;DHT22;9651;49.138;8.900;2023-10-19T06:00:28;11.20;99.90
19037;DHT22;9651;49.138;8.900;2023-10-19T06:04:31;11.20;99.90
19037;DHT22;9651;49.138;8.900;2023-10-19T06:08:32;11.30;99.90
19037;DHT22;9651;49.138;8.900;2023-10-19T06:12:34;11.20;99.90
19037;DHT22;9651;49.138;8.900;2023-10-19T06:16:39;11.30;99.90
19037;DHT22;9651;49.138;8.900;2023-10-19T06:20:43;11.30;99.90
19037;DHT22;9651;49.138;8.900;2023-10-19T06:24:45;11.30;99.90
19037;DHT22;9651;49.138;8.900;2023-10-19T06:28:47;11.40;99.90
19037;DHT22;9651;49.138;8.900;2023-10-19T06:32:54;11.40;99.90
19037;DHT22;9651;49.138;8.900;2023-10-19T06:36:56;11.50;99.90
19037;DHT22;9651;49.138;8.900;2023-10-19T06:41:00;11.60;99.90
19037;DHT22;9651;49.138;8.900;2023-10-19T06:45:04;11.70;99.90
19037;DHT22;9651;49.138;8.900;2023-10-19T06:49:09;11.90;99.90
19037;DHT22;9651;49.138;8.900;2023-10-19T06:53:10;12.10;99.90
19037;DHT22;9651;49.138;8.900;2023-10-19T06:57:12;12.20;99.90
19037;DHT22;9651;49.138;8.900;2023-10-19T07:01:14;12.30;99.90
19037;DHT22;9651;49.138;8.900;2023-10-19T07:05:20;12.40;99.90
19037;DHT22;9651;49.138;8.900;2023-10-19T07:09:23;12.40;99.90
19037;DHT22;9651;49.138;8.900;2023-10-19T07:13:25;12.40;99.90
19037;DHT22;9651;49.138;8.900;2023-10-19T07:17:28;12.50;99.90
19037;DHT22;9651;49.138;8.900;2023-10-19T07:21:31;12.50;99.90
19037;DHT22;9651;49.138;8.900;2023-10-19T07:25:36;12.60;99.90
19037;DHT22;9651;49.138;8.900;2023-10-19T07:29:43;12.60;99.90
19037;DHT22;9651;49.138;8.900;2023-10-19T07:33:45;12.70;99.90
19037;DHT22;9651;49.138;8.900;2023-10-19T07:37:48;12.70;99.90
19037;DHT22;9651;49.138;8.900;2023-10-19T07:41:51;12.80;99.90
19037;DHT22;9651;49.138;8.900;2023-10-19T07:45:53;12.80;99.90
19037;DHT22;9651;49.138;8.900;2023-10-19T07:49:56;12.90;99.90
19037;DHT22;9651;49.138;8.900;2023-10-19T07:54:01;13.00;99.90
19037;DHT22;9651;49.138;8.900;2023-10-19T07:58:03;13.10;99.90
19037;DHT22;9651;49.138;8.900;2023-10-19T08:02:05;13.20;99.90
19037;DHT22;9651;49.138;8.900;2023-10-19T08:06:09;13.30;99.90
19037;DHT22;9651;49.138;8.900;2023-10-19T08:10:12;13.50;99.90
19037;DHT22;9651;49.138;8.900;2023-10-19T08:14:15;13.70;99.90
19037;DHT22;9651;49.138;8.900;2023-10-19T08:18:17;14.00;99.90
19037;DHT22;9651;49.138;8.900;2023-10-19T08:22:19;14.30;99.90
19037;DHT22;9651;49.138;8.900;2023-10-19T08:26:22;14.60;99.90
19037;DHT22;9651;49.138;8.900;2023-10-19T08:30:24;14.80;99.90
19037;DHT22;9651;49.138;8.900;2023-10-19T08:34:27;15.10;99.90
19037;DHT22;9651;49.138;8.900;2023-10-19T08:38:30;15.40;99.90
19037;DHT22;9651;49.138;8.900;2023-10-19T08:42:33;15.60;99.90
19037;DHT22;9651;49.138;8.900;2023-10-19T08:46:39;15.90;99.90
19037;DHT22;9651;49.138;8.900;2023-10-19T08:50:43;16.30;99.90
19037;DHT22;9651;49.138;8.900;2023-10-19T08:54:46;16.80;99.90
19037;DHT22;9651;49.138;8.900;2023-10-19T08:58:50;17.10;99.90
19037;DHT22;9651;49.138;8.900;2023-10-19T09:02:53;17.30;99.90
19037;DHT22;9651;49.138;8.900;2023-10-19T09:06:57;17.70;99.90
19037;DHT22;9651;49.138;8.900;2023-10-19T09:11:05;18.20;99.90
19037;DHT22;9651;49.138;8.900;2023-10-19T09:15:21;18.50;99.90
19037;DHT22;9651;49.138;8.900;2023-10-19T09:19:36;18.40;99.90
19037;DHT22;9651;49.138;8.900;2023-10-19T09:23:38;18.60;99.90
19037;DHT22;9651;49.138;8.900;2023-10-19T09:27:42;19.00;99.90
19037;DHT22;9651;49.138;8.900;2023-10-19T09:31:47;19.40;99.90
19037;DHT22;9651;49.138;8.900;2023-10-19T09:35:50;19.80;99.90
19037;DHT22;9651;49.138;8.900;2023-10-19T09:39:53;20.00;99.90
19037;DHT22;9651;49.138;8.900;2023-10-19T09:44:01;19.80;99.90
19037;DHT22;9651;49.138;8.900;2023-10-19T09:48:08;19.90;99.90
19037;DHT22;9651;49.138;8.900;2023-10-19T09:52:17;20.10;99.90
19037;DHT22;9651;49.138;8.900;2023-10-19T09:56:24;20.40;99.90
19037;DHT22;9651;49.138;8.900;2023-10-19T10:00:28;20.50;99.90
19037;DHT22;9651;49.138;8.900;2023-10-19T10:04:34;20.80;99.90
19037;DHT22;9651;49.138;8.900;2023-10-19T10:08:37;21.20;99.90
19037;DHT22;9651;49.138;8.900;2023-10-19T10:12:39;21.70;99.90
19037;DHT22;9651;49.138;8.900;2023-10-19T10:16:41;22.50;99.90
19037;DHT22;9651;49.138;8.900;2023-10-19T10:20:44;23.00;99.90
19037;DHT22;9651;49.138;8.900;2023-10-19T10:24:47;23.00;99.90
19037;DHT22;9651;49.138;8.900;2023-10-19T10:29:12;22.80;99.90
19037;DHT22;9651;49.138;8.900;2023-10-19T10:33:37;22.50;99.90
19037;DHT22;9651;49.138;8.900;2023-10-19T10:37:53;22.00;99.90
19037;DHT22;9651;49.138;8.900;2023-10-19T10:41:56;21.50;99.90
19037;DHT22;9651;49.138;8.900;2023-10-19T10:46:04;21.10;99.90
19037;DHT22;9651;49.138;8.900;2023-10-19T10:50:08;20.80;99.90
19037;DHT22;9651;49.138;8.900;2023-10-19T10:54:12;20.60;99.90
19037;DHT22;9651;49.138;8.900;2023-10-19T10:58:15;20.40;99.90
19037;DHT22;9651;49.138;8.900;2023-10-19T11:02:18;20.10;99.90
19037;DHT22;9651;49.138;8.900;2023-10-19T11:06:21;19.80;99.90
19037;DHT22;9651;49.138;8.900;2023-10-19T11:10:28;19.60;99.90
19037;DHT22;9651;49.138;8.900;2023-10-19T11:14:30;19.40;99.90
19037;DHT22;9651;49.138;8.900;2023-10-19T11:18:33;19.30;99.90
19037;DHT22;9651;49.138;8.900;2023-10-19T11:22:48;19.10;99.90
19037;DHT22;9651;49.138;8.900;2023-10-19T11:26:51;19.00;99.90
19037;DHT22;9651;49.138;8.900;2023-10-19T11:30:54;18.90;99.90
19037;DHT22;9651;49.138;8.900;2023-10-19T11:34:56;18.70;99.90
19037;DHT22;9651;49.138;8.900;2023-10-19T11:38:58;18.50;99.90
19037;DHT22;9651;49.138;8.900;2023-10-19T11:43:02;18.30;99.90
19037;DHT22;9651;49.138;8.900;2023-10-19T11:47:04;18.10;99.90
19037;DHT22;9651;49.138;8.900;2023-10-19T11:51:06;18.00;99.90
19037;DHT22;9651;49.138;8.900;2023-10-19T11:55:08;17.90;99.90
19037;DHT22;9651;49.138;8.900;2023-10-19T11:59:11;17.80;99.90
19037;DHT22;9651;49.138;8.900;2023-10-19T12:03:13;17.90;99.90
19037;DHT22;9651;49.138;8.900;2023-10-19T12:07:15;17.90;99.90
19037;DHT22;9651;49.138;8.900;2023-10-19T12:11:17;17.90;99.90
19037;DHT22;9651;49.138;8.900;2023-10-19T12:15:22;17.80;99.90
19037;DHT22;9651;49.138;8.900;2023-10-19T12:19:27;17.70;99.90
19037;DHT22;9651;49.138;8.900;2023-10-19T12:23:30;17.60;99.90
19037;DHT22;9651;49.138;8.900;2023-10-19T12:27:32;17.50;99.90
19037;DHT22;9651;49.138;8.900;2023-10-19T12:31:35;17.40;99.90
19037;DHT22;9651;49.138;8.900;2023-10-19T12:35:40;17.40;99.90
19037;DHT22;9651;49.138;8.900;2023-10-19T12:39:52;17.40;99.90
19037;DHT22;9651;49.138;8.900;2023-10-19T12:43:56;17.30;99.90
19037;DHT22;9651;49.138;8.900;2023-10-19T12:48:00;17.40;99.90
19037;DHT22;9651;49.138;8.900;2023-10-19T12:52:02;17.30;99.90
19037;DHT22;9651;49.138;8.900;2023-10-19T12:56:05;17.30;99.90
19037;DHT22;9651;49.138;8.900;2023-10-19T13:00:09;17.30;99.90
19037;DHT22;9651;49.138;8.900;2023-10-19T13:04:26;17.40;99.90
19037;DHT22;9651;49.138;8.900;2023-10-19T13:08:31;17.40;99.90
19037;DHT22;9651;49.138;8.900;2023-10-19T13:12:33;17.60;99.90
19037;DHT22;9651;49.138;8.900;2023-10-19T13:16:37;17.70;99.90
19037;DHT22;9651;49.138;8.900;2023-10-19T13:20:40;17.80;99.90
19037;DHT22;9651;49.138;8.900;2023-10-19T13:24:44;17.80;99.90
19037;DHT22;9651;49.138;8.900;2023-10-19T13:28:47;17.80;99.90
19037;DHT22;9651;49.138;8.900;2023-10-19T13:32:49;17.70;99.90
19037;DHT22;9651;49.138;8.900;2023-10-19T13:36:52;17.70;99.90
19037;DHT22;9651;49.138;8.900;2023-10-19T13:40:56;17.60;99.90
19037;DHT22;9651;49.138;8.900;2023-10-19T13:44:58;17.60;99.90
19037;DHT22;9651;49.138;8.900;2023-10-19T13:49:00;17.50;99.90
19037;DHT22;9651;49.138;8.900;2023-10-19T13:53:05;17.50;99.90
19037;DHT22;9651;49.138;8.900;2023-10-19T13:57:07;17.40;99.90
19037;DHT22;9651;49.138;8.900;2023-10-19T14:01:10;17.30;99.90
19037;DHT22;9651;49.138;8.900;2023-10-19T14:05:12;17.30;99.90
19037;DHT22;9651;49.138;8.900;2023-10-19T14:09:16;17.30;99.90
19037;DHT22;9651;49.138;8.900;2023-10-19T14:13:18;17.30;99.90
19037;DHT22;9651;49.138;8.900;2023-10-19T14:17:20;17.30;99.90
19037;DHT22;9651;49.138;8.900;2023-10-19T14:21:22;17.30;99.90
19037;DHT22;9651;49.138;8.900;2023-10-19T14:25:28;17.30;99.90
19037;DHT22;9651;49.138;8.900;2023-10-19T14:29:31;17.20;99.90
19037;DHT22;9651;49.138;8.900;2023-10-19T14:33:33;17.20;99.90
19037;DHT22;9651;49.138;8.900;2023-10-19T14:37:36;17.10;99.90
19037;DHT22;9651;49.138;8.900;2023-10-19T14:41:40;17.10;99.90
19037;DHT22;9651;49.138;8.900;2023-10-19T14:45:42;16.90;99.90
19037;DHT22;9651;49.138;8.900;2023-10-19T14:49:44;16.80;99.90
19037;DHT22;9651;49.138;8.900;2023-10-19T14:53:46;16.70;99.90
19037;DHT22;9651;49.138;8.900;2023-10-19T14:57:51;16.60;99.90
19037;DHT22;9651;49.138;8.900;2023-10-19T15:01:54;16.50;99.90
19037;DHT22;9651;49.138;8.900;2023-10-19T15:05:55;16.50;99.90
19037;DHT22;9651;49.138;8.900;2023-10-19T15:10:01;16.50;99.90
19037;DHT22;9651;49.138;8.900;2023-10-19T15:14:07;16.50;99.90
19037;DHT22;9651;49.138;8.900;2023-10-19T15:18:11;16.50;99.90
19037;DHT22;9651;49.138;8.900;2023-10-19T15:22:13;16.50;99.90
19037;DHT22;9651;49.138;8.900;2023-10-19T15:26:17;16.50;99.90
19037;DHT22;9651;49.138;8.900;2023-10-19T15:30:20;16.50;99.90
19037;DHT22;9651;49.138;8.900;2023-10-19T15:34:23;16.50;99.90
19037;DHT22;9651;49.138;8.900;2023-10-19T15:38:26;16.50;99.90
19037;DHT22;9651;49.138;8.900;2023-10-19T15:42:28;16.50;99.90
19037;DHT22;9651;49.138;8.900;2023-10-19T15:46:31;16.50;99.90
19037;DHT22;9651;49.138;8.900;2023-10-19T15:50:34;16.40;99.90
19037;DHT22;9651;49.138;8.900;2023-10-19T15:54:36;16.30;99.90
19037;DHT22;9651;49.138;8.900;2023-10-19T15:58:38;16.20;99.90
19037;DHT22;9651;49.138;8.900;2023-10-19T16:02:41;16.20;99.90
19037;DHT22;9651;49.138;8.900;2023-10-19T16:06:45;16.20;99.90
19037;DHT22;9651;49.138;8.900;2023-10-19T16:10:47;16.10;99.90
19037;DHT22;9651;49.138;8.900;2023-10-19T16:14:50;16.10;99.90
19037;DHT22;9651;49.138;8.900;2023-10-19T16:18:53;16.10;99.90
19037;DHT22;9651;49.138;8.900;2023-10-19T16:22:55;16.10;99.90
19037;DHT22;9651;49.138;8.900;2023-10-19T16:26:59;16.10;99.90
19037;DHT22;9651;49.138;8.900;2023-10-19T16:31:04;16.00;99.90
19037;DHT22;9651;49.138;8.900;2023-10-19T16:35:08;16.00;99.90
19037;DHT22;9651;49.138;8.900;2023-10-19T16:39:10;16.00;99.90
19037;DHT22;9651;49.138;8.900;2023-10-19T16:43:16;16.00;99.90
19037;DHT22;9651;49.138;8.900;2023-10-19T16:47:18;15.90;99.90
19037;DHT22;9651;49.138;8.900;2023-10-19T16:51:23;15.90;99.90
19037;DHT22;9651;49.138;8.900;2023-10-19T16:55:26;15.90;99.90
19037;DHT22;9651;49.138;8.900;2023-10-19T16:59:28;15.90;99.90
19037;DHT22;9651;49.138;8.900;2023-10-19T17:03:30;15.90;99.90
19037;DHT22;9651;49.138;8.900;2023-10-19T17:07:33;15.80;99.90
19037;DHT22;9651;49.138;8.900;2023-10-19T17:11:35;15.80;99.90
19037;DHT22;9651;49.138;8.900;2023-10-19T17:15:37;15.80;99.90
19037;DHT22;9651;49.138;8.900;2023-10-19T17:19:41;15.80;99.90
19037;DHT22;9651;49.138;8.900;2023-10-19T17:23:44;15.80;99.90
19037;DHT22;9651;49.138;8.900;2023-10-19T17:27:47;15.80;99.90
19037;DHT22;9651;49.138;8.900;2023-10-19T17:31:49;15.80;99.90
19037;DHT22;9651;49.138;8.900;2023-10-19T17:35:51;15.80;99.90
19037;DHT22;9651;49.138;8.900;2023-10-19T17:39:54;15.80;99.90
19037;DHT22;9651;49.138;8.900;2023-10-19T17:43:56;15.80;99.90
19037;DHT22;9651;49.138;8.900;2023-10-19T17:47:58;15.80;99.90
19037;DHT22;9651;49.138;8.900;2023-10-19T17:51:59;15.70;99.90
19037;DHT22;9651;49.138;8.900;2023-10-19T17:56:03;15.70;99.90
19037;DHT22;9651;49.138;8.900;2023-10-19T18:00:07;15.60;99.90
19037;DHT22;9651;49.138;8.900;2023-10-19T18:04:12;15.70;99.90
19037;DHT22;9651;49.138;8.900;2023-10-19T18:08:15;15.70;99.90
19037;DHT22;9651;49.138;8.900;2023-10-19T18:12:18;15.70;99.90
19037;DHT22;9651;49.138;8.900;2023-10-19T18:16:25;15.70;99.90
19037;DHT22;9651;49.138;8.900;2023-10-19T18:20:55;15.70;99.90
19037;DHT22;9651;49.138;8.900;2023-10-19T18:24:57;15.60;99.90
19037;DHT22;9651;49.138;8.900;2023-10-19T18:29:01;15.60;99.90
19037;DHT22;9651;49.138;8.900;2023-10-19T18:33:04;15.60;99.90
19037;DHT22;9651;49.138;8.900;2023-10-19T18:37:07;15.50;99.90
19037;DHT22;9651;49.138;8.900;2023-10-19T18:41:09;15.50;99.90
19037;DHT22;9651;49.138;8.900;2023-10-19T18:45:13;15.50;99.90
19037;DHT22;9651;49.138;8.900;2023-10-19T18:49:15;15.50;99.90
19037;DHT22;9651;49.138;8.900;2023-10-19T18:53:17;15.50;99.90
19037;DHT22;9651;49.138;8.900;2023-10-19T18:57:20;15.50;99.90
19037;DHT22;9651;49.138;8.900;2023-10-19T19:01:25;15.50;99.90
19037;DHT22;9651;49.138;8.900;2023-10-19T19:05:27;15.50;99.90
19037;DHT22;9651;49.138;8.900;2023-10-19T19:09:31;15.50;99.90
19037;DHT22;9651;49.138;8.900;2023-10-19T19:13:33;15.40;99.90
19037;DHT22;9651;49.138;8.900;2023-10-19T19:17:37;15.50;99.90
19037;DHT22;9651;49.138;8.900;2023-10-19T19:21:39;15.40;99.90
19037;DHT22;9651;49.138;8.900;2023-10-19T19:25:43;15.40;99.90
19037;DHT22;9651;49.138;8.900;2023-10-19T19:29:46;15.40;99.90
19037;DHT22;9651;49.138;8.900;2023-10-19T19:33:49;15.40;99.90
19037;DHT22;9651;49.138;8.900;2023-10-19T19:37:51;15.40;99.90
19037;DHT22;9651;49.138;8.900;2023-10-19T19:41:53;15.40;99.90
19037;DHT22;9651;49.138;8.900;2023-10-19T19:45:56;15.40;99.90
19037;DHT22;9651;49.138;8.900;2023-10-19T19:49:59;15.40;99.90
19037;DHT22;9651;49.138;8.900;2023-10-19T19:54:01;15.40;99.90
19037;DHT22;9651;49.138;8.900;2023-10-19T19:58:04;15.30;99.90
19037;DHT22;9651;49.138;8.900;2023-10-19T20:02:06;15.40;99.90
19037;DHT22;9651;49.138;8.900;2023-10-19T20:06:11;15.40;99.90
19037;DHT22;9651;49.138;8.900;2023-10-19T20:10:15;15.30;99.90
19037;DHT22;9651;49.138;8.900;2023-10-19T20:14:17;15.30;99.90
19037;DHT22;9651;49.138;8.900;2023-10-19T20:18:19;15.30;99.90
19037;DHT22;9651;49.138;8.900;2023-10-19T20:22:22;15.30;99.90
19037;DHT22;9651;49.138;8.900;2023-10-19T20:26:24;15.30;99.90
19037;DHT22;9651;49.138;8.900;2023-10-19T20:30:26;15.30;99.90
19037;DHT22;9651;49.138;8.900;2023-10-19T20:34:28;15.30;99.90
19037;DHT22;9651;49.138;8.900;2023-10-19T20:38:31;15.30;99.90
19037;DHT22;9651;49.138;8.900;2023-10-19T20:42:33;15.30;99.90
19037;DHT22;9651;49.138;8.900;2023-10-19T20:46:36;15.40;99.90
19037;DHT22;9651;49.138;8.900;2023-10-19T20:50:38;15.30;99.90
19037;DHT22;9651;49.138;8.900;2023-10-19T20:54:41;15.30;99.90
19037;DHT22;9651;49.138;8.900;2023-10-19T20:58:43;15.30;99.90
19037;DHT22;9651;49.138;8.900;2023-10-19T21:02:46;15.30;99.90
19037;DHT22;9651;49.138;8.900;2023-10-19T21:06:48;15.30;99.90
19037;DHT22;9651;49.138;8.900;2023-10-19T21:10:51;15.30;99.90
19037;DHT22;9651;49.138;8.900;2023-10-19T21:14:53;15.30;99.90
19037;DHT22;9651;49.138;8.900;2023-10-19T21:18:55;15.30;99.90
19037;DHT22;9651;49.138;8.900;2023-10-19T21:22:57;15.30;99.90
19037;DHT22;9651;49.138;8.900;2023-10-19T21:27:01;15.20;99.90
19037;DHT22;9651;49.138;8.900;2023-10-19T21:31:03;15.20;99.90
19037;DHT22;9651;49.138;8.900;2023-10-19T21:35:06;15.20;99.90
19037;DHT22;9651;49.138;8.900;2023-10-19T21:39:09;15.20;99.90
19037;DHT22;9651;49.138;8.900;2023-10-19T21:43:13;15.10;99.90
19037;DHT22;9651;49.138;8.900;2023-10-19T21:47:16;15.10;99.90
19037;DHT22;9651;49.138;8.900;2023-10-19T21:51:19;15.10;99.90
19037;DHT22;9651;49.138;8.900;2023-10-19T21:55:22;15.10;99.90
19037;DHT22;9651;49.138;8.900;2023-10-19T21:59:25;15.10;99.90
19037;DHT22;9651;49.138;8.900;2023-10-19T22:03:27;15.10;99.90
19037;DHT22;9651;49.138;8.900;2023-10-19T22:07:29;15.10;99.90
19037;DHT22;9651;49.138;8.900;2023-10-19T22:11:31;15.00;99.90
19037;DHT22;9651;49.138;8.900;2023-10-19T22:15:35;15.00;99.90
19037;DHT22;9651;49.138;8.900;2023-10-19T22:19:37;14.90;99.90
19037;DHT22;9651;49.138;8.900;2023-10-19T22:23:41;14.90;99.90
19037;DHT22;9651;49.138;8.900;2023-10-19T22:27:43;14.90;99.90
19037;DHT22;9651;49.138;8.900;2023-10-19T22:31:47;14.90;99.90
19037;DHT22;9651;49.138;8.900;2023-10-19T22:35:51;14.90;99.90
19037;DHT22;9651;49.138;8.900;2023-10-19T22:39:53;14.80;99.90
19037;DHT22;9651;49.138;8.900;2023-10-19T22:43:55;14.90;99.90
19037;DHT22;9651;49.138;8.900;2023-10-19T22:47:58;14.80;99.90
19037;DHT22;9651;49.138;8.900;2023-10-19T22:52:03;14.80;99.90
19037;DHT22;9651;49.138;8.900;2023-10-19T22:56:06;14.80;99.90
19037;DHT22;9651;49.138;8.900;2023-10-19T23:00:10;14.80;99.90
19037;DHT22;9651;49.138;8.900;2023-10-19T23:04:17;14.70;99.90
19037;DHT22;9651;49.138;8.900;2023-10-19T23:08:19;14.70;99.90
19037;DHT22;9651;49.138;8.900;2023-10-19T23:12:21;14.70;99.90
19037;DHT22;9651;49.138;8.900;2023-10-19T23:16:24;14.60;99.90
19037;DHT22;9651;49.138;8.900;2023-10-19T23:20:32;14.60;99.90
19037;DHT22;9651;49.138;8.900;2023-10-19T23:24:34;14.60;99.90
19037;DHT22;9651;49.138;8.900;2023-10-19T23:28:36;14.60;99.90
19037;DHT22;9651;49.138;8.900;2023-10-19T23:32:38;14.60;99.90
19037;DHT22;9651;49.138;8.900;2023-10-19T23:36:41;14.60;99.90
19037;DHT22;9651;49.138;8.900;2023-10-19T23:40:44;14.60;99.90
19037;DHT22;9651;49.138;8.900;2023-10-19T23:44:46;14.60;99.90
19037;DHT22;9651;49.138;8.900;2023-10-19T23:48:48;14.60;99.90
19037;DHT22;9651;49.138;8.900;2023-10-19T23:52:51;14.60;99.90
19037;DHT22;9651;49.138;8.900;2023-10-19T23:56:53;14.60;99.90
